Sao Joao d'Alianca, Brazil
Current Conditions -  °F | °C
As of 10:00 PM on Sunday 23 Nov 2014 (Local Time) from SBBR Reporting Station
Overcast Overcast  
Wind Chill: 70°   Ceiling: 10000
Heat Index: 70°   Visibility: 6mi
Dew Point: 64°   Wind: 6mph
Humidity: 83%   Direction: 340°NNW
Pressure: 30.09"   Gusts: NA
Location:  14.71°S, 47.52°W
Report Text: SBBR 240000Z 34005KT 9999 SCT020 OVC100 21/18 Q1019 RERA
Loading
Personal Weather Stations






























Interactive Weather Map New forecast layout! Learn more

10-Day Weather Forecast

Advertisements
Track Severe Weather on mobile